sensor_id;sensor_type;location;lat;lon;timestamp;pressure;altitude;pressure_sealevel;temperature;humidity
56270;BME280;42176;43.240;27.880;2023-04-09T00:02:21;100722.38;;;5.93;100.00
56270;BME280;42176;43.240;27.880;2023-04-09T00:04:47;100725.84;;;5.82;100.00
56270;BME280;42176;43.240;27.880;2023-04-09T00:07:12;100730.25;;;5.87;100.00
56270;BME280;42176;43.240;27.880;2023-04-09T00:09:38;100751.59;;;6.31;100.00
56270;BME280;42176;43.240;27.880;2023-04-09T00:12:03;100737.47;;;6.13;100.00
56270;BME280;42176;43.240;27.880;2023-04-09T00:14:29;100728.56;;;5.99;100.00
56270;BME280;42176;43.240;27.880;2023-04-09T00:16:54;100699.41;;;5.66;100.00
56270;BME280;42176;43.240;27.880;2023-04-09T00:19:20;100742.56;;;5.94;100.00
56270;BME280;42176;43.240;27.880;2023-04-09T00:21:45;100742.69;;;6.07;100.00
56270;BME280;42176;43.240;27.880;2023-04-09T00:24:12;100750.72;;;6.30;100.00
56270;BME280;42176;43.240;27.880;2023-04-09T00:26:38;100732.25;;;6.19;100.00
56270;BME280;42176;43.240;27.880;2023-04-09T00:29:03;100744.50;;;6.17;100.00
56270;BME280;42176;43.240;27.880;2023-04-09T00:31:29;100737.44;;;6.10;100.00
56270;BME280;42176;43.240;27.880;2023-04-09T00:33:54;100742.78;;;6.25;100.00
56270;BME280;42176;43.240;27.880;2023-04-09T00:36:20;100747.41;;;6.72;100.00
56270;BME280;42176;43.240;27.880;2023-04-09T00:38:45;100741.22;;;6.71;100.00
56270;BME280;42176;43.240;27.880;2023-04-09T00:41:12;100739.44;;;6.61;100.00
56270;BME280;42176;43.240;27.880;2023-04-09T00:43:38;100744.69;;;6.56;100.00
56270;BME280;42176;43.240;27.880;2023-04-09T00:46:04;100738.59;;;6.65;100.00
56270;BME280;42176;43.240;27.880;2023-04-09T00:48:30;100738.66;;;6.80;100.00
56270;BME280;42176;43.240;27.880;2023-04-09T00:50:56;100744.88;;;7.20;100.00
56270;BME280;42176;43.240;27.880;2023-04-09T00:53:21;100733.41;;;7.02;100.00
56270;BME280;42176;43.240;27.880;2023-04-09T00:55:47;100730.72;;;6.77;100.00
56270;BME280;42176;43.240;27.880;2023-04-09T00:58:13;100730.72;;;6.77;100.00
56270;BME280;42176;43.240;27.880;2023-04-09T01:00:38;100731.63;;;6.89;100.00
56270;BME280;42176;43.240;27.880;2023-04-09T01:03:05;100718.47;;;6.96;100.00
56270;BME280;42176;43.240;27.880;2023-04-09T01:05:38;100728.19;;;7.19;100.00
56270;BME280;42176;43.240;27.880;2023-04-09T01:10:58;100727.31;;;7.45;100.00
56270;BME280;42176;43.240;27.880;2023-04-09T01:13:40;100712.38;;;7.38;100.00
56270;BME280;42176;43.240;27.880;2023-04-09T01:16:09;100732.63;;;7.51;100.00
56270;BME280;42176;43.240;27.880;2023-04-09T01:18:43;100730.81;;;7.64;100.00
56270;BME280;42176;43.240;27.880;2023-04-09T01:21:12;100725.56;;;7.70;100.00
56270;BME280;42176;43.240;27.880;2023-04-09T01:23:46;100714.16;;;7.51;100.00
56270;BME280;42176;43.240;27.880;2023-04-09T01:29:10;100716.75;;;7.09;100.00
56270;BME280;42176;43.240;27.880;2023-04-09T01:31:37;100720.31;;;7.45;100.00
56270;BME280;42176;43.240;27.880;2023-04-09T01:34:04;100707.97;;;7.38;100.00
56270;BME280;42176;43.240;27.880;2023-04-09T01:36:31;100717.66;;;7.27;100.00
56270;BME280;42176;43.240;27.880;2023-04-09T01:38:59;100700.03;;;7.16;100.00
56270;BME280;42176;43.240;27.880;2023-04-09T01:41:26;100709.75;;;7.27;100.00
56270;BME280;42176;43.240;27.880;2023-04-09T01:43:52;100710.59;;;7.16;100.00
56270;BME280;42176;43.240;27.880;2023-04-09T01:46:19;100710.59;;;7.20;100.00
56270;BME280;42176;43.240;27.880;2023-04-09T01:48:45;100708.84;;;7.08;100.00
56270;BME280;42176;43.240;27.880;2023-04-09T01:51:14;100714.94;;;6.83;100.00
56270;BME280;42176;43.240;27.880;2023-04-09T01:53:41;100707.03;;;6.80;100.00
56270;BME280;42176;43.240;27.880;2023-04-09T01:56:08;100703.56;;;7.01;100.00
56270;BME280;42176;43.240;27.880;2023-04-09T01:58:34;100708.88;;;7.46;100.00
56270;BME280;42176;43.240;27.880;2023-04-09T02:01:12;100699.19;;;7.42;100.00
56270;BME280;42176;43.240;27.880;2023-04-09T02:04:01;100699.16;;;7.21;100.00
56270;BME280;42176;43.240;27.880;2023-04-09T02:06:41;100713.22;;;7.12;100.00
56270;BME280;42176;43.240;27.880;2023-04-09T02:09:08;100710.59;;;7.16;100.00
56270;BME280;42176;43.240;27.880;2023-04-09T02:11:40;100709.75;;;7.42;100.00
56270;BME280;42176;43.240;27.880;2023-04-09T02:14:07;100701.84;;;7.30;100.00
56270;BME280;42176;43.240;27.880;2023-04-09T02:16:35;100697.41;;;7.16;100.00
56270;BME280;42176;43.240;27.880;2023-04-09T02:19:01;100686.88;;;6.98;100.00
56270;BME280;42176;43.240;27.880;2023-04-09T02:21:27;100693.88;;;7.08;100.00
56270;BME280;42176;43.240;27.880;2023-04-09T02:23:54;100699.19;;;7.24;100.00
56270;BME280;42176;43.240;27.880;2023-04-09T02:26:23;100684.19;;;6.93;100.00
56270;BME280;42176;43.240;27.880;2023-04-09T02:28:49;100691.22;;;6.85;100.00
56270;BME280;42176;43.240;27.880;2023-04-09T02:31:15;100679.75;;;6.66;100.00
56270;BME280;42176;43.240;27.880;2023-04-09T02:33:41;100684.19;;;6.92;100.00
56270;BME280;42176;43.240;27.880;2023-04-09T02:36:10;100698.25;;;6.94;100.00
56270;BME280;42176;43.240;27.880;2023-04-09T02:38:40;100695.59;;;6.78;100.00
56270;BME280;42176;43.240;27.880;2023-04-09T02:41:06;100692.03;;;6.61;100.00
56270;BME280;42176;43.240;27.880;2023-04-09T02:43:31;100692.91;;;6.60;100.00
56270;BME280;42176;43.240;27.880;2023-04-09T02:45:57;100702.63;;;6.76;100.00
56270;BME280;42176;43.240;27.880;2023-04-09T02:48:22;100693.78;;;6.59;100.00
56270;BME280;42176;43.240;27.880;2023-04-09T02:50:47;100686.66;;;6.39;100.00
56270;BME280;42176;43.240;27.880;2023-04-09T02:53:13;100687.47;;;6.16;100.00
56270;BME280;42176;43.240;27.880;2023-04-09T02:55:38;100684.78;;;6.07;100.00
56270;BME280;42176;43.240;27.880;2023-04-09T02:58:04;100677.84;;;6.28;100.00
56270;BME280;42176;43.240;27.880;2023-04-09T03:00:29;100674.31;;;6.16;100.00
56270;BME280;42176;43.240;27.880;2023-04-09T03:02:55;100684.66;;;5.94;100.00
56270;BME280;42176;43.240;27.880;2023-04-09T03:05:20;100686.38;;;5.86;100.00
56270;BME280;42176;43.240;27.880;2023-04-09T03:07:46;100681.97;;;5.82;100.00
56270;BME280;42176;43.240;27.880;2023-04-09T03:10:12;100683.72;;;5.85;100.00
56270;BME280;42176;43.240;27.880;2023-04-09T03:12:37;100689.88;;;5.85;100.00
56270;BME280;42176;43.240;27.880;2023-04-09T03:15:03;100689.88;;;5.85;100.00
56270;BME280;42176;43.240;27.880;2023-04-09T03:17:28;100695.19;;;5.88;100.00
56270;BME280;42176;43.240;27.880;2023-04-09T03:19:56;100689.94;;;5.91;100.00
56270;BME280;42176;43.240;27.880;2023-04-09T03:22:22;100691.78;;;6.03;100.00
56270;BME280;42176;43.240;27.880;2023-04-09T03:24:47;100690.06;;;6.07;100.00
56270;BME280;42176;43.240;27.880;2023-04-09T03:30:04;100693.53;;;6.03;100.00
56270;BME280;42176;43.240;27.880;2023-04-09T03:32:29;100703.19;;;6.05;100.00
56270;BME280;42176;43.240;27.880;2023-04-09T03:34:55;100693.50;;;6.00;100.00
56270;BME280;42176;43.240;27.880;2023-04-09T03:37:20;100698.72;;;5.97;100.00
56270;BME280;42176;43.240;27.880;2023-04-09T03:39:46;100693.44;;;5.90;100.00
56270;BME280;42176;43.240;27.880;2023-04-09T03:42:11;100683.75;;;5.86;100.00
56270;BME280;42176;43.240;27.880;2023-04-09T03:44:37;100691.53;;;5.68;100.00
56270;BME280;42176;43.240;27.880;2023-04-09T03:47:02;100697.50;;;5.48;100.00
56270;BME280;42176;43.240;27.880;2023-04-09T03:49:27;100706.06;;;5.24;100.00
56270;BME280;42176;43.240;27.880;2023-04-09T03:51:53;100700.72;;;5.13;100.00
56270;BME280;42176;43.240;27.880;2023-04-09T03:54:18;100705.13;;;5.15;100.00
56270;BME280;42176;43.240;27.880;2023-04-09T03:56:44;100722.69;;;5.21;100.00
56270;BME280;42176;43.240;27.880;2023-04-09T03:59:09;100721.97;;;5.36;100.00
56270;BME280;42176;43.240;27.880;2023-04-09T04:01:34;100722.69;;;5.21;100.00
56270;BME280;42176;43.240;27.880;2023-04-09T04:04:00;100712.03;;;5.06;100.00
56270;BME280;42176;43.240;27.880;2023-04-09T04:06:25;100718.72;;;4.76;100.00
56270;BME280;42176;43.240;27.880;2023-04-09T04:08:52;100722.38;;;4.90;100.00
56270;BME280;42176;43.240;27.880;2023-04-09T04:11:17;100727.84;;;5.09;100.00
56270;BME280;42176;43.240;27.880;2023-04-09T04:13:43;100717.28;;;5.07;100.00
56270;BME280;42176;43.240;27.880;2023-04-09T04:16:08;100731.09;;;4.86;100.00
56270;BME280;42176;43.240;27.880;2023-04-09T04:18:35;100727.88;;;5.12;100.00
56270;BME280;42176;43.240;27.880;2023-04-09T04:21:00;100700.34;;;5.79;100.00
56270;BME280;42176;43.240;27.880;2023-04-09T04:23:26;100698.16;;;6.57;100.00
56270;BME280;42176;43.240;27.880;2023-04-09T04:25:51;100706.22;;;7.34;100.00
56270;BME280;42176;43.240;27.880;2023-04-09T04:28:22;100703.53;;;7.95;100.00
56270;BME280;42176;43.240;27.880;2023-04-09T04:30:47;100704.28;;;8.51;100.00
56270;BME280;42176;43.240;27.880;2023-04-09T04:33:13;100709.19;;;9.16;97.42
56270;BME280;42176;43.240;27.880;2023-04-09T04:35:38;100704.25;;;9.82;91.89
56270;BME280;42176;43.240;27.880;2023-04-09T04:38:03;100699.31;;;10.29;86.52
56270;BME280;42176;43.240;27.880;2023-04-09T04:40:29;100708.34;;;10.86;81.64
56270;BME280;42176;43.240;27.880;2023-04-09T04:42:54;100700.88;;;11.12;78.18
56270;BME280;42176;43.240;27.880;2023-04-09T04:45:20;100706.25;;;11.64;74.24
56270;BME280;42176;43.240;27.880;2023-04-09T04:47:45;100703.56;;;12.16;70.00
56270;BME280;42176;43.240;27.880;2023-04-09T04:50:11;100700.53;;;12.77;64.66
56270;BME280;42176;43.240;27.880;2023-04-09T04:52:36;100698.47;;;13.29;60.91
56270;BME280;42176;43.240;27.880;2023-04-09T04:55:03;100695.19;;;13.90;57.54
56270;BME280;42176;43.240;27.880;2023-04-09T04:57:28;100697.50;;;14.66;54.78
56270;BME280;42176;43.240;27.880;2023-04-09T04:59:54;100704.84;;;15.17;52.67
56270;BME280;42176;43.240;27.880;2023-04-09T05:02:19;100701.59;;;15.61;51.58
56270;BME280;42176;43.240;27.880;2023-04-09T05:04:45;100701.47;;;16.18;50.04
56270;BME280;42176;43.240;27.880;2023-04-09T05:07:10;100700.31;;;16.49;48.32
56270;BME280;42176;43.240;27.880;2023-04-09T05:09:36;100698.19;;;17.05;46.72
56270;BME280;42176;43.240;27.880;2023-04-09T05:12:01;100707.88;;;17.31;45.53
56270;BME280;42176;43.240;27.880;2023-04-09T05:14:27;100708.03;;;17.70;45.67
56270;BME280;42176;43.240;27.880;2023-04-09T05:16:52;100706.88;;;18.18;43.71
56270;BME280;42176;43.240;27.880;2023-04-09T05:19:18;100706.47;;;18.67;42.57
56270;BME280;42176;43.240;27.880;2023-04-09T05:21:43;100706.41;;;19.07;41.62
56270;BME280;42176;43.240;27.880;2023-04-09T05:24:08;100702.59;;;19.30;41.07
56270;BME280;42176;43.240;27.880;2023-04-09T05:26:34;100705.06;;;19.70;41.23
56270;BME280;42176;43.240;27.880;2023-04-09T05:28:59;100708.13;;;19.62;39.40
56270;BME280;42176;43.240;27.880;2023-04-09T05:31:25;100717.31;;;20.29;38.57
56270;BME280;42176;43.240;27.880;2023-04-09T05:33:50;100713.75;;;20.62;38.11
56270;BME280;42176;43.240;27.880;2023-04-09T05:36:18;100702.97;;;20.62;36.96
56270;BME280;42176;43.240;27.880;2023-04-09T05:38:45;100708.41;;;21.10;36.72
56270;BME280;42176;43.240;27.880;2023-04-09T05:41:11;100703.59;;;21.63;35.70
56270;BME280;42176;43.240;27.880;2023-04-09T05:43:36;100705.75;;;21.72;35.69
56270;BME280;42176;43.240;27.880;2023-04-09T05:46:02;100713.38;;;22.25;34.72
56270;BME280;42176;43.240;27.880;2023-04-09T05:48:28;100713.00;;;22.60;33.97
56270;BME280;42176;43.240;27.880;2023-04-09T05:50:53;100719.97;;;23.06;33.41
56270;BME280;42176;43.240;27.880;2023-04-09T05:53:19;100730.69;;;23.22;33.09
56270;BME280;42176;43.240;27.880;2023-04-09T05:55:45;100724.34;;;23.64;31.57
56270;BME280;42176;43.240;27.880;2023-04-09T05:58:12;100720.78;;;24.04;31.07
56270;BME280;42176;43.240;27.880;2023-04-09T06:00:38;100720.16;;;24.26;31.32
56270;BME280;42176;43.240;27.880;2023-04-09T06:03:04;100718.59;;;24.47;31.29
56270;BME280;42176;43.240;27.880;2023-04-09T06:05:29;100717.41;;;25.15;30.58
56270;BME280;42176;43.240;27.880;2023-04-09T06:07:55;100718.53;;;25.36;29.48
56270;BME280;42176;43.240;27.880;2023-04-09T06:10:21;100714.53;;;26.25;29.22
56270;BME280;42176;43.240;27.880;2023-04-09T06:12:46;100716.91;;;26.41;28.34
56270;BME280;42176;43.240;27.880;2023-04-09T06:15:12;100707.50;;;26.79;27.72
56270;BME280;42176;43.240;27.880;2023-04-09T06:17:37;100729.91;;;27.27;26.74
56270;BME280;42176;43.240;27.880;2023-04-09T06:20:03;100726.81;;;26.87;27.29
56270;BME280;42176;43.240;27.880;2023-04-09T06:22:29;100739.34;;;26.32;27.80
56270;BME280;42176;43.240;27.880;2023-04-09T06:24:54;100749.38;;;24.46;29.89
56270;BME280;42176;43.240;27.880;2023-04-09T06:27:20;100743.53;;;24.78;30.04
56270;BME280;42176;43.240;27.880;2023-04-09T06:29:46;100747.63;;;24.84;30.36
56270;BME280;42176;43.240;27.880;2023-04-09T06:32:12;100753.06;;;24.20;30.35
56270;BME280;42176;43.240;27.880;2023-04-09T06:34:37;100747.41;;;25.00;29.75
56270;BME280;42176;43.240;27.880;2023-04-09T06:37:03;100754.63;;;25.13;29.37
56270;BME280;42176;43.240;27.880;2023-04-09T06:39:28;100746.91;;;25.19;29.55
56270;BME280;42176;43.240;27.880;2023-04-09T06:41:54;100760.44;;;24.17;30.60
56270;BME280;42176;43.240;27.880;2023-04-09T06:44:19;100753.88;;;25.11;29.84
56270;BME280;42176;43.240;27.880;2023-04-09T06:46:46;100741.72;;;25.41;29.00
56270;BME280;42176;43.240;27.880;2023-04-09T06:49:11;100744.09;;;25.21;29.43
56270;BME280;42176;43.240;27.880;2023-04-09T06:51:37;100745.06;;;25.20;29.84
56270;BME280;42176;43.240;27.880;2023-04-09T06:54:02;100738.88;;;25.18;29.87
56270;BME280;42176;43.240;27.880;2023-04-09T06:56:28;100743.66;;;25.87;28.96
56270;BME280;42176;43.240;27.880;2023-04-09T06:58:53;100741.06;;;26.21;28.54
56270;BME280;42176;43.240;27.880;2023-04-09T07:01:19;100739.09;;;26.12;28.89
56270;BME280;42176;43.240;27.880;2023-04-09T07:03:45;100747.44;;;26.09;28.90
56270;BME280;42176;43.240;27.880;2023-04-09T07:06:10;100739.63;;;25.20;29.43
56270;BME280;42176;43.240;27.880;2023-04-09T07:08:36;100742.69;;;25.88;29.08
56270;BME280;42176;43.240;27.880;2023-04-09T07:11:01;100731.09;;;26.79;27.97
56270;BME280;42176;43.240;27.880;2023-04-09T07:13:28;100738.88;;;26.26;28.61
56270;BME280;42176;43.240;27.880;2023-04-09T07:15:53;100739.97;;;26.24;28.92
56270;BME280;42176;43.240;27.880;2023-04-09T07:18:19;100738.91;;;26.60;28.73
56270;BME280;42176;43.240;27.880;2023-04-09T07:20:44;100742.84;;;26.68;28.34
56270;BME280;42176;43.240;27.880;2023-04-09T07:23:10;100742.34;;;26.40;28.87
56270;BME280;42176;43.240;27.880;2023-04-09T07:25:36;100739.38;;;26.54;28.99
56270;BME280;42176;43.240;27.880;2023-04-09T07:28:02;100739.28;;;26.09;29.35
56270;BME280;42176;43.240;27.880;2023-04-09T07:30:27;100742.34;;;25.20;30.75
56270;BME280;42176;43.240;27.880;2023-04-09T07:32:53;100736.22;;;24.92;31.44
56270;BME280;42176;43.240;27.880;2023-04-09T07:35:19;100728.41;;;25.37;30.67
56270;BME280;42176;43.240;27.880;2023-04-09T07:37:45;100739.81;;;25.05;31.35
56270;BME280;42176;43.240;27.880;2023-04-09T07:40:10;100744.09;;;25.21;31.14
56270;BME280;42176;43.240;27.880;2023-04-09T07:42:37;100735.56;;;25.01;31.22
56270;BME280;42176;43.240;27.880;2023-04-09T07:45:03;100733.66;;;25.28;31.15
56270;BME280;42176;43.240;27.880;2023-04-09T07:47:29;100734.19;;;24.96;31.41
56270;BME280;42176;43.240;27.880;2023-04-09T07:49:55;100734.00;;;24.08;31.93
56270;BME280;42176;43.240;27.880;2023-04-09T07:52:20;100737.69;;;24.33;32.15
56270;BME280;42176;43.240;27.880;2023-04-09T07:54:46;100732.28;;;24.59;32.10
56270;BME280;42176;43.240;27.880;2023-04-09T07:57:11;100727.50;;;24.75;31.72
56270;BME280;42176;43.240;27.880;2023-04-09T07:59:37;100737.47;;;24.10;32.54
56270;BME280;42176;43.240;27.880;2023-04-09T08:02:02;100730.69;;;23.22;33.93
56270;BME280;42176;43.240;27.880;2023-04-09T08:04:28;100737.63;;;23.81;33.25
56270;BME280;42176;43.240;27.880;2023-04-09T08:06:53;100738.16;;;23.46;34.07
56270;BME280;42176;43.240;27.880;2023-04-09T08:09:19;100741.56;;;22.50;35.09
56270;BME280;42176;43.240;27.880;2023-04-09T08:11:46;100733.47;;;22.50;35.74
56270;BME280;42176;43.240;27.880;2023-04-09T08:14:12;100728.03;;;20.80;38.07
56270;BME280;42176;43.240;27.880;2023-04-09T08:16:39;100743.16;;;20.15;40.14
56270;BME280;42176;43.240;27.880;2023-04-09T08:19:06;100732.03;;;21.69;37.50
56270;BME280;42176;43.240;27.880;2023-04-09T08:21:32;100735.63;;;20.56;39.47
56270;BME280;42176;43.240;27.880;2023-04-09T08:23:57;100741.22;;;20.35;40.62
56270;BME280;42176;43.240;27.880;2023-04-09T08:26:28;100744.59;;;19.87;41.61
56270;BME280;42176;43.240;27.880;2023-04-09T08:28:54;100755.31;;;18.55;43.70
56270;BME280;42176;43.240;27.880;2023-04-09T08:31:19;100746.59;;;18.90;43.75
56270;BME280;42176;43.240;27.880;2023-04-09T08:33:45;100747.94;;;19.00;44.23
56270;BME280;42176;43.240;27.880;2023-04-09T08:36:11;100757.00;;;18.18;44.98
56270;BME280;42176;43.240;27.880;2023-04-09T08:38:36;100755.59;;;17.87;45.82
56270;BME280;42176;43.240;27.880;2023-04-09T08:41:02;100756.22;;;18.14;45.96
56270;BME280;42176;43.240;27.880;2023-04-09T08:43:29;100750.78;;;17.30;47.85
56270;BME280;42176;43.240;27.880;2023-04-09T08:45:56;100747.28;;;17.72;47.22
56270;BME280;42176;43.240;27.880;2023-04-09T08:48:23;100738.94;;;17.13;48.23
56270;BME280;42176;43.240;27.880;2023-04-09T08:50:50;100747.25;;;16.34;50.14
56270;BME280;42176;43.240;27.880;2023-04-09T08:53:16;100743.53;;;16.62;49.86
56270;BME280;42176;43.240;27.880;2023-04-09T08:55:45;100729.28;;;16.62;49.30
56270;BME280;42176;43.240;27.880;2023-04-09T08:58:11;100738.81;;;17.39;49.07
56270;BME280;42176;43.240;27.880;2023-04-09T09:00:36;100744.69;;;16.79;49.29
56270;BME280;42176;43.240;27.880;2023-04-09T09:03:06;100749.59;;;15.93;52.51
56270;BME280;42176;43.240;27.880;2023-04-09T09:05:39;100734.63;;;16.38;50.93
56270;BME280;42176;43.240;27.880;2023-04-09T09:08:09;100744.56;;;16.09;52.30
56270;BME280;42176;43.240;27.880;2023-04-09T09:10:43;100733.03;;;16.07;52.80
56270;BME280;42176;43.240;27.880;2023-04-09T09:13:24;100743.16;;;15.72;55.56
56270;BME280;42176;43.240;27.880;2023-04-09T09:15:54;100743.66;;;14.38;59.32
56270;BME280;42176;43.240;27.880;2023-04-09T09:18:40;100742.56;;;13.43;65.03
56270;BME280;42176;43.240;27.880;2023-04-09T09:21:14;100744.16;;;12.70;69.17
56270;BME280;42176;43.240;27.880;2023-04-09T09:23:41;100748.44;;;11.83;74.85
56270;BME280;42176;43.240;27.880;2023-04-09T09:26:13;100751.63;;;12.03;76.31
56270;BME280;42176;43.240;27.880;2023-04-09T09:28:40;100738.88;;;11.71;77.41
56270;BME280;42176;43.240;27.880;2023-04-09T09:31:10;100742.69;;;12.08;78.60
56270;BME280;42176;43.240;27.880;2023-04-09T09:33:36;100740.94;;;12.07;76.42
56270;BME280;42176;43.240;27.880;2023-04-09T09:36:01;100747.72;;;11.71;76.99
56270;BME280;42176;43.240;27.880;2023-04-09T09:38:28;100745.91;;;11.73;75.45
56270;BME280;42176;43.240;27.880;2023-04-09T09:40:54;100746.88;;;11.69;77.51
56270;BME280;42176;43.240;27.880;2023-04-09T09:43:20;100744.69;;;11.93;74.92
56270;BME280;42176;43.240;27.880;2023-04-09T09:45:46;100733.69;;;12.15;74.40
56270;BME280;42176;43.240;27.880;2023-04-09T09:48:12;100733.31;;;12.35;71.76
56270;BME280;42176;43.240;27.880;2023-04-09T09:50:39;100738.25;;;12.08;71.47
56270;BME280;42176;43.240;27.880;2023-04-09T09:53:10;100724.66;;;12.25;72.73
56270;BME280;42176;43.240;27.880;2023-04-09T09:55:40;100721.78;;;12.36;71.81
56270;BME280;42176;43.240;27.880;2023-04-09T09:58:30;100707.44;;;12.43;70.78
56270;BME280;42176;43.240;27.880;2023-04-09T10:00:57;100716.69;;;12.68;71.86
56270;BME280;42176;43.240;27.880;2023-04-09T10:03:26;100717.16;;;12.88;67.13
56270;BME280;42176;43.240;27.880;2023-04-09T10:05:55;100716.75;;;12.64;68.41
56270;BME280;42176;43.240;27.880;2023-04-09T10:08:22;100715.41;;;12.87;67.24
56270;BME280;42176;43.240;27.880;2023-04-09T10:10:49;100717.03;;;12.93;66.11
56270;BME280;42176;43.240;27.880;2023-04-09T10:13:32;100716.09;;;12.95;63.57
56270;BME280;42176;43.240;27.880;2023-04-09T10:15:59;100702.69;;;12.15;67.67
56270;BME280;42176;43.240;27.880;2023-04-09T10:18:24;100710.56;;;12.20;69.00
56270;BME280;42176;43.240;27.880;2023-04-09T10:20:57;100708.75;;;12.22;69.15
56270;BME280;42176;43.240;27.880;2023-04-09T10:23:38;100721.47;;;12.52;67.96
56270;BME280;42176;43.240;27.880;2023-04-09T10:26:04;100723.75;;;12.26;69.48
56270;BME280;42176;43.240;27.880;2023-04-09T10:28:30;100708.81;;;12.19;69.51
56270;BME280;42176;43.240;27.880;2023-04-09T10:30:57;100689.25;;;12.23;69.75
56270;BME280;42176;43.240;27.880;2023-04-09T10:33:24;100707.19;;;12.12;71.31
56270;BME280;42176;43.240;27.880;2023-04-09T10:35:59;100714.47;;;12.00;74.85
56270;BME280;42176;43.240;27.880;2023-04-09T10:41:12;100713.16;;;11.75;75.61
56270;BME280;42176;43.240;27.880;2023-04-09T10:43:38;100715.50;;;11.38;77.68
56270;BME280;42176;43.240;27.880;2023-04-09T10:46:06;100712.22;;;11.22;80.47
56270;BME280;42176;43.240;27.880;2023-04-09T10:48:33;100697.91;;;11.34;81.12
56270;BME280;42176;43.240;27.880;2023-04-09T10:51:01;100701.47;;;11.33;81.89
56270;BME280;42176;43.240;27.880;2023-04-09T10:53:28;100692.59;;;11.34;82.11
56270;BME280;42176;43.240;27.880;2023-04-09T10:55:54;100693.50;;;11.32;82.45
56270;BME280;42176;43.240;27.880;2023-04-09T10:58:20;100691.94;;;11.20;84.24
56270;BME280;42176;43.240;27.880;2023-04-09T11:00:47;100689.28;;;11.20;84.59
56270;BME280;42176;43.240;27.880;2023-04-09T11:05:50;100659.72;;;11.43;81.81
56270;BME280;42176;43.240;27.880;2023-04-09T11:08:16;100683.53;;;11.46;83.58
56270;BME280;42176;43.240;27.880;2023-04-09T11:10:43;100683.25;;;11.62;82.34
56270;BME280;42176;43.240;27.880;2023-04-09T11:13:11;100675.06;;;11.76;80.72
56270;BME280;42176;43.240;27.880;2023-04-09T11:15:38;100678.03;;;11.57;79.86
56270;BME280;42176;43.240;27.880;2023-04-09T11:18:03;100635.50;;;11.60;78.46
56270;BME280;42176;43.240;27.880;2023-04-09T11:20:32;100664.88;;;11.51;77.87
56270;BME280;42176;43.240;27.880;2023-04-09T11:22:59;100658.31;;;11.70;77.59
56270;BME280;42176;43.240;27.880;2023-04-09T11:25:30;100666.22;;;11.75;76.69
56270;BME280;42176;43.240;27.880;2023-04-09T11:27:56;100652.97;;;11.73;77.68
56270;BME280;42176;43.240;27.880;2023-04-09T11:30:22;100594.97;;;11.52;73.88
56270;BME280;42176;43.240;27.880;2023-04-09T11:32:48;100657.09;;;11.90;73.54
56270;BME280;42176;43.240;27.880;2023-04-09T11:35:18;100650.34;;;12.19;73.82
56270;BME280;42176;43.240;27.880;2023-04-09T11:37:44;100650.88;;;11.91;72.82
56270;BME280;42176;43.240;27.880;2023-04-09T11:40:28;100645.59;;;11.88;73.58
56270;BME280;42176;43.240;27.880;2023-04-09T11:42:54;100637.34;;;12.05;73.42
56270;BME280;42176;43.240;27.880;2023-04-09T11:45:23;100631.66;;;11.77;71.56
56270;BME280;42176;43.240;27.880;2023-04-09T11:47:49;100636.44;;;11.57;72.43
56270;BME280;42176;43.240;27.880;2023-04-09T11:50:15;100576.81;;;11.27;74.09
56270;BME280;42176;43.240;27.880;2023-04-09T11:52:41;100630.09;;;11.66;73.73
56270;BME280;42176;43.240;27.880;2023-04-09T11:55:08;100637.16;;;11.67;73.47
56270;BME280;42176;43.240;27.880;2023-04-09T12:00:08;100627.41;;;11.68;70.49
56270;BME280;42176;43.240;27.880;2023-04-09T12:02:37;100628.75;;;11.89;69.85
56270;BME280;42176;43.240;27.880;2023-04-09T12:05:03;100626.41;;;11.73;69.14
56270;BME280;42176;43.240;27.880;2023-04-09T12:07:34;100624.88;;;11.60;69.97
56270;BME280;42176;43.240;27.880;2023-04-09T12:10:04;100620.78;;;11.89;67.95
56270;BME280;42176;43.240;27.880;2023-04-09T12:12:30;100610.31;;;11.83;67.56
56270;BME280;42176;43.240;27.880;2023-04-09T12:14:55;100620.78;;;11.91;70.21
56270;BME280;42176;43.240;27.880;2023-04-09T12:17:23;100619.38;;;11.69;69.94
56270;BME280;42176;43.240;27.880;2023-04-09T12:19:49;100629.97;;;11.72;69.82
56270;BME280;42176;43.240;27.880;2023-04-09T12:22:14;100613.91;;;11.79;69.13
56270;BME280;42176;43.240;27.880;2023-04-09T12:24:40;100612.47;;;11.62;68.98
56270;BME280;42176;43.240;27.880;2023-04-09T12:27:05;100623.47;;;11.40;71.38
56270;BME280;42176;43.240;27.880;2023-04-09T12:29:31;100613.78;;;11.38;73.17
56270;BME280;42176;43.240;27.880;2023-04-09T12:31:57;100603.13;;;11.41;71.69
56270;BME280;42176;43.240;27.880;2023-04-09T12:34:23;100609.06;;;11.54;71.38
56270;BME280;42176;43.240;27.880;2023-04-09T12:36:48;100619.13;;;11.35;69.78
56270;BME280;42176;43.240;27.880;2023-04-09T12:39:14;100613.06;;;11.28;72.20
56270;BME280;42176;43.240;27.880;2023-04-09T12:41:40;100606.75;;;11.34;72.08
56270;BME280;42176;43.240;27.880;2023-04-09T12:44:05;100618.31;;;11.31;72.71
56270;BME280;42176;43.240;27.880;2023-04-09T12:46:31;100621.78;;;11.35;71.47
56270;BME280;42176;43.240;27.880;2023-04-09T12:48:57;100610.13;;;11.43;71.17
56270;BME280;42176;43.240;27.880;2023-04-09T12:51:22;100625.25;;;11.38;70.52
56270;BME280;42176;43.240;27.880;2023-04-09T12:53:48;100601.81;;;11.14;69.77
56270;BME280;42176;43.240;27.880;2023-04-09T12:56:13;100603.34;;;11.27;69.37